sensor_id;sensor_type;location;lat;lon;timestamp;pressure;altitude;pressure_sealevel;temperature;humidity
35224;BME280;21367;51.930;8.112;2023-02-01T00:03:42;101179.47;;;3.90;95.30
35224;BME280;21367;51.930;8.112;2023-02-01T00:08:46;101169.34;;;4.02;95.96
35224;BME280;21367;51.930;8.112;2023-02-01T00:13:52;101158.28;;;4.01;96.44
35224;BME280;21367;51.930;8.112;2023-02-01T00:18:58;101161.16;;;4.06;95.43
35224;BME280;21367;51.930;8.112;2023-02-01T00:24:04;101168.09;;;3.97;95.24
35224;BME280;21367;51.930;8.112;2023-02-01T00:29:13;101177.03;;;3.91;97.10
35224;BME280;21367;51.930;8.112;2023-02-01T00:34:18;101157.16;;;3.98;96.97
35224;BME280;21367;51.930;8.112;2023-02-01T00:39:23;101147.16;;;4.11;97.79
35224;BME280;21367;51.930;8.112;2023-02-01T00:44:29;101144.69;;;4.12;98.88
35224;BME280;21367;51.930;8.112;2023-02-01T00:49:35;101138.13;;;3.92;99.59
35224;BME280;21367;51.930;8.112;2023-02-01T00:54:38;101145.66;;;4.03;100.00
35224;BME280;21367;51.930;8.112;2023-02-01T00:59:45;101143.63;;;3.87;100.00
35224;BME280;21367;51.930;8.112;2023-02-01T01:04:49;101143.69;;;4.10;100.00
35224;BME280;21367;51.930;8.112;2023-02-01T01:09:53;101139.06;;;4.16;100.00
35224;BME280;21367;51.930;8.112;2023-02-01T01:14:59;101124.63;;;4.39;99.37
35224;BME280;21367;51.930;8.112;2023-02-01T01:20:04;101130.56;;;4.28;99.44
35224;BME280;21367;51.930;8.112;2023-02-01T01:25:08;101139.19;;;4.18;99.79
35224;BME280;21367;51.930;8.112;2023-02-01T01:30:16;101136.66;;;4.41;98.40
35224;BME280;21367;51.930;8.112;2023-02-01T01:35:20;101138.34;;;4.41;98.85
35224;BME280;21367;51.930;8.112;2023-02-01T01:40:24;101140.78;;;4.39;98.25
35224;BME280;21367;51.930;8.112;2023-02-01T01:45:33;101145.41;;;4.33;98.50
35224;BME280;21367;51.930;8.112;2023-02-01T01:50:40;101129.94;;;4.54;96.93
35224;BME280;21367;51.930;8.112;2023-02-01T01:55:50;101126.41;;;4.52;97.12
35224;BME280;21367;51.930;8.112;2023-02-01T02:00:57;101119.84;;;4.32;97.74
35224;BME280;21367;51.930;8.112;2023-02-01T02:06:02;101108.91;;;4.68;96.53
35224;BME280;21367;51.930;8.112;2023-02-01T02:11:11;101099.63;;;4.45;96.53
35224;BME280;21367;51.930;8.112;2023-02-01T02:16:28;101090.41;;;4.35;98.20
35224;BME280;21367;51.930;8.112;2023-02-01T02:21:52;101076.84;;;4.58;96.48
35224;BME280;21367;51.930;8.112;2023-02-01T02:27:17;101074.06;;;4.67;94.46
35224;BME280;21367;51.930;8.112;2023-02-01T02:32:58;101057.56;;;4.74;92.91
35224;BME280;21367;51.930;8.112;2023-02-01T02:38:59;101053.91;;;4.70;91.68
35224;BME280;21367;51.930;8.112;2023-02-01T02:44:12;101039.25;;;4.79;90.87
35224;BME280;21367;51.930;8.112;2023-02-01T02:49:34;101044.69;;;4.84;90.48
35224;BME280;21367;51.930;8.112;2023-02-01T02:54:46;101035.41;;;4.73;89.57
35224;BME280;21367;51.930;8.112;2023-02-01T02:59:55;101025.78;;;4.80;89.22
35224;BME280;21367;51.930;8.112;2023-02-01T03:05:13;101015.81;;;4.83;89.52
35224;BME280;21367;51.930;8.112;2023-02-01T03:10:26;101020.25;;;4.74;90.12
35224;BME280;21367;51.930;8.112;2023-02-01T03:15:38;101017.19;;;4.92;89.23
35224;BME280;21367;51.930;8.112;2023-02-01T03:20:46;101011.34;;;4.93;89.24
35224;BME280;21367;51.930;8.112;2023-02-01T03:25:55;101014.56;;;4.90;89.81
35224;BME280;21367;51.930;8.112;2023-02-01T03:31:01;101002.03;;;4.93;89.33
35224;BME280;21367;51.930;8.112;2023-02-01T03:36:15;100992.84;;;4.95;89.56
35224;BME280;21367;51.930;8.112;2023-02-01T03:41:28;100979.16;;;4.81;90.08
35224;BME280;21367;51.930;8.112;2023-02-01T03:46:40;100978.50;;;4.72;89.57
35224;BME280;21367;51.930;8.112;2023-02-01T03:51:49;100977.81;;;4.86;89.79
35224;BME280;21367;51.930;8.112;2023-02-01T03:57:00;100967.78;;;5.01;88.89
35224;BME280;21367;51.930;8.112;2023-02-01T04:02:05;100975.41;;;5.01;89.07
35224;BME280;21367;51.930;8.112;2023-02-01T04:07:09;100982.81;;;5.10;88.14
35224;BME280;21367;51.930;8.112;2023-02-01T04:12:16;100977.00;;;4.99;88.80
35224;BME280;21367;51.930;8.112;2023-02-01T04:17:20;100959.25;;;5.01;89.18
35224;BME280;21367;51.930;8.112;2023-02-01T04:22:24;100949.03;;;5.13;88.34
35224;BME280;21367;51.930;8.112;2023-02-01T04:27:32;100953.25;;;5.12;89.31
35224;BME280;21367;51.930;8.112;2023-02-01T04:32:36;100946.69;;;5.16;88.69
35224;BME280;21367;51.930;8.112;2023-02-01T04:37:39;100959.25;;;5.26;88.43
35224;BME280;21367;51.930;8.112;2023-02-01T04:42:46;100947.25;;;5.12;88.60
35224;BME280;21367;51.930;8.112;2023-02-01T04:47:51;100944.59;;;5.10;89.65
35224;BME280;21367;51.930;8.112;2023-02-01T04:52:54;100933.97;;;5.29;88.17
35224;BME280;21367;51.930;8.112;2023-02-01T04:58:01;100930.72;;;5.18;88.76
35224;BME280;21367;51.930;8.112;2023-02-01T05:03:05;100931.97;;;5.12;88.38
35224;BME280;21367;51.930;8.112;2023-02-01T05:08:09;100929.31;;;5.10;89.38
35224;BME280;21367;51.930;8.112;2023-02-01T05:13:16;100946.50;;;5.26;88.98
35224;BME280;21367;51.930;8.112;2023-02-01T05:18:32;100941.72;;;5.17;90.06
35224;BME280;21367;51.930;8.112;2023-02-01T05:23:36;100920.53;;;5.18;89.59
35224;BME280;21367;51.930;8.112;2023-02-01T05:29:04;100929.19;;;4.95;91.14
35224;BME280;21367;51.930;8.112;2023-02-01T05:34:08;100926.56;;;5.07;90.34
35224;BME280;21367;51.930;8.112;2023-02-01T05:39:12;100923.88;;;5.17;89.96
35224;BME280;21367;51.930;8.112;2023-02-01T05:44:18;100907.59;;;4.90;90.96
35224;BME280;21367;51.930;8.112;2023-02-01T05:49:22;100883.63;;;5.00;90.71
35224;BME280;21367;51.930;8.112;2023-02-01T05:54:26;100898.03;;;4.99;90.79
35224;BME280;21367;51.930;8.112;2023-02-01T05:59:33;100901.22;;;5.08;90.84
35224;BME280;21367;51.930;8.112;2023-02-01T06:04:42;100912.94;;;5.06;90.72
35224;BME280;21367;51.930;8.112;2023-02-01T06:09:46;100921.47;;;5.07;90.90
35224;BME280;21367;51.930;8.112;2023-02-01T06:14:52;100904.72;;;5.10;90.63
35224;BME280;21367;51.930;8.112;2023-02-01T06:19:56;100893.50;;;5.20;90.89
35224;BME280;21367;51.930;8.112;2023-02-01T06:25:00;100905.41;;;5.08;90.76
35224;BME280;21367;51.930;8.112;2023-02-01T06:30:10;100924.53;;;5.15;90.51
35224;BME280;21367;51.930;8.112;2023-02-01T06:35:15;100919.25;;;5.12;90.12
35224;BME280;21367;51.930;8.112;2023-02-01T06:40:19;100933.28;;;5.18;90.43
35224;BME280;21367;51.930;8.112;2023-02-01T06:45:26;100922.47;;;5.09;90.06
35224;BME280;21367;51.930;8.112;2023-02-01T06:50:29;100929.44;;;5.12;91.09
35224;BME280;21367;51.930;8.112;2023-02-01T06:55:33;100944.72;;;5.12;90.64
35224;BME280;21367;51.930;8.112;2023-02-01T07:00:40;100936.88;;;5.08;90.39
35224;BME280;21367;51.930;8.112;2023-02-01T07:05:44;100950.44;;;5.21;90.65
35224;BME280;21367;51.930;8.112;2023-02-01T07:10:48;100958.06;;;5.21;89.94
35224;BME280;21367;51.930;8.112;2023-02-01T07:15:57;100961.09;;;5.15;90.89
35224;BME280;21367;51.930;8.112;2023-02-01T07:21:01;100967.22;;;5.30;89.72
35224;BME280;21367;51.930;8.112;2023-02-01T07:26:06;100973.91;;;5.17;90.73
35224;BME280;21367;51.930;8.112;2023-02-01T07:31:15;100970.16;;;5.23;89.95
35224;BME280;21367;51.930;8.112;2023-02-01T07:36:20;100974.44;;;5.24;90.43
35224;BME280;21367;51.930;8.112;2023-02-01T07:41:24;100978.59;;;5.36;90.06
35224;BME280;21367;51.930;8.112;2023-02-01T07:46:30;100991.44;;;5.37;89.46
35224;BME280;21367;51.930;8.112;2023-02-01T07:51:34;101005.28;;;5.41;89.92
35224;BME280;21367;51.930;8.112;2023-02-01T07:56:38;101001.25;;;5.44;89.22
35224;BME280;21367;51.930;8.112;2023-02-01T08:01:45;100996.91;;;5.55;89.41
35224;BME280;21367;51.930;8.112;2023-02-01T08:06:49;101004.44;;;5.53;88.94
35224;BME280;21367;51.930;8.112;2023-02-01T08:11:52;100997.19;;;5.60;88.67
35224;BME280;21367;51.930;8.112;2023-02-01T08:16:59;101001.03;;;5.66;89.17
35224;BME280;21367;51.930;8.112;2023-02-01T08:22:03;101000.88;;;5.51;88.82
35224;BME280;21367;51.930;8.112;2023-02-01T08:27:07;100998.47;;;5.66;88.91
35224;BME280;21367;51.930;8.112;2023-02-01T08:32:15;101009.75;;;5.95;88.08
35224;BME280;21367;51.930;8.112;2023-02-01T08:37:19;101003.47;;;6.03;87.69
35224;BME280;21367;51.930;8.112;2023-02-01T08:42:23;101011.03;;;5.76;88.46
35224;BME280;21367;51.930;8.112;2023-02-01T08:47:42;101014.56;;;6.03;87.41
35224;BME280;21367;51.930;8.112;2023-02-01T08:52:47;101018.47;;;5.98;87.65
35224;BME280;21367;51.930;8.112;2023-02-01T08:57:51;101011.31;;;5.93;87.65
35224;BME280;21367;51.930;8.112;2023-02-01T09:02:58;101029.88;;;6.03;86.99
35224;BME280;21367;51.930;8.112;2023-02-01T09:08:03;101024.88;;;6.05;87.58
35224;BME280;21367;51.930;8.112;2023-02-01T09:13:08;101010.66;;;6.22;87.24
35224;BME280;21367;51.930;8.112;2023-02-01T09:18:14;101017.91;;;6.02;87.44
35224;BME280;21367;51.930;8.112;2023-02-01T09:23:18;101008.13;;;5.84;87.34
35224;BME280;21367;51.930;8.112;2023-02-01T09:28:23;100995.75;;;6.15;86.94
35224;BME280;21367;51.930;8.112;2023-02-01T09:33:30;100999.25;;;6.17;87.51
35224;BME280;21367;51.930;8.112;2023-02-01T09:38:33;100977.97;;;6.43;86.33
35224;BME280;21367;51.930;8.112;2023-02-01T09:43:41;100985.03;;;6.07;87.58
35224;BME280;21367;51.930;8.112;2023-02-01T09:48:53;100983.81;;;6.42;86.01
35224;BME280;21367;51.930;8.112;2023-02-01T09:54:02;100985.22;;;6.23;86.03
35224;BME280;21367;51.930;8.112;2023-02-01T09:59:20;100983.41;;;6.62;85.51
35224;BME280;21367;51.930;8.112;2023-02-01T10:04:30;100973.09;;;6.61;84.68
35224;BME280;21367;51.930;8.112;2023-02-01T10:09:44;100970.16;;;6.55;85.87
35224;BME280;21367;51.930;8.112;2023-02-01T10:15:00;100957.91;;;6.36;86.63
35224;BME280;21367;51.930;8.112;2023-02-01T10:20:15;100960.94;;;6.57;84.54
35224;BME280;21367;51.930;8.112;2023-02-01T10:25:25;100970.91;;;6.67;84.66
35224;BME280;21367;51.930;8.112;2023-02-01T10:30:34;100983.59;;;6.65;84.16
35224;BME280;21367;51.930;8.112;2023-02-01T10:35:46;100963.44;;;6.70;83.87
35224;BME280;21367;51.930;8.112;2023-02-01T10:40:51;100952.78;;;6.90;83.59
35224;BME280;21367;51.930;8.112;2023-02-01T10:45:56;100970.34;;;6.71;83.49
35224;BME280;21367;51.930;8.112;2023-02-01T10:51:06;100970.91;;;6.80;83.76
35224;BME280;21367;51.930;8.112;2023-02-01T10:56:12;100954.03;;;6.97;82.39
35224;BME280;21367;51.930;8.112;2023-02-01T11:01:18;100958.69;;;6.89;83.27
35224;BME280;21367;51.930;8.112;2023-02-01T11:06:31;100936.41;;;6.73;82.66
35224;BME280;21367;51.930;8.112;2023-02-01T11:11:53;100930.09;;;6.54;83.87
35224;BME280;21367;51.930;8.112;2023-02-01T11:16:58;100932.72;;;6.68;83.69
35224;BME280;21367;51.930;8.112;2023-02-01T11:22:05;100925.31;;;6.73;84.04
35224;BME280;21367;51.930;8.112;2023-02-01T11:27:15;100920.03;;;6.70;83.24
35224;BME280;21367;51.930;8.112;2023-02-01T11:32:20;100916.81;;;6.31;84.81
35224;BME280;21367;51.930;8.112;2023-02-01T11:37:32;100908.91;;;6.41;86.91
35224;BME280;21367;51.930;8.112;2023-02-01T11:42:53;100904.63;;;6.40;86.50
35224;BME280;21367;51.930;8.112;2023-02-01T11:47:58;100896.19;;;6.28;88.54
35224;BME280;21367;51.930;8.112;2023-02-01T11:53:20;100877.56;;;6.16;90.25
35224;BME280;21367;51.930;8.112;2023-02-01T11:58:38;100876.38;;;6.11;91.50
35224;BME280;21367;51.930;8.112;2023-02-01T12:04:13;100864.13;;;5.78;94.22
35224;BME280;21367;51.930;8.112;2023-02-01T12:09:54;100854.13;;;5.95;96.52
35224;BME280;21367;51.930;8.112;2023-02-01T12:15:23;100861.31;;;5.74;97.52
35224;BME280;21367;51.930;8.112;2023-02-01T12:20:52;100848.25;;;5.56;99.35
35224;BME280;21367;51.930;8.112;2023-02-01T12:26:14;100861.66;;;5.40;100.00
35224;BME280;21367;51.930;8.112;2023-02-01T12:36:53;100856.56;;;5.27;100.00
35224;BME280;21367;51.930;8.112;2023-02-01T12:42:09;100859.13;;;5.27;100.00
35224;BME280;21367;51.930;8.112;2023-02-01T12:47:21;100845.09;;;5.20;100.00
35224;BME280;21367;51.930;8.112;2023-02-01T12:52:34;100810.44;;;4.97;100.00
35224;BME280;21367;51.930;8.112;2023-02-01T12:57:46;100818.22;;;5.25;100.00
35224;BME280;21367;51.930;8.112;2023-02-01T13:02:59;100809.91;;;5.41;100.00
35224;BME280;21367;51.930;8.112;2023-02-01T13:08:07;100828.22;;;5.75;100.00
35224;BME280;21367;51.930;8.112;2023-02-01T13:13:21;100803.25;;;5.43;100.00
35224;BME280;21367;51.930;8.112;2023-02-01T13:18:34;100813.53;;;5.71;100.00
35224;BME280;21367;51.930;8.112;2023-02-01T13:23:40;100791.06;;;5.79;100.00
35224;BME280;21367;51.930;8.112;2023-02-01T13:28:50;100809.88;;;5.94;100.00
35224;BME280;21367;51.930;8.112;2023-02-01T13:34:23;100795.72;;;6.13;100.00
35224;BME280;21367;51.930;8.112;2023-02-01T13:39:54;100783.38;;;6.06;100.00
35224;BME280;21367;51.930;8.112;2023-02-01T13:45:14;100803.94;;;6.22;100.00
35224;BME280;21367;51.930;8.112;2023-02-01T13:50:22;100790.63;;;6.13;100.00
35224;BME280;21367;51.930;8.112;2023-02-01T13:55:31;100793.41;;;6.31;100.00
35224;BME280;21367;51.930;8.112;2023-02-01T14:00:41;100806.06;;;6.29;100.00
35224;BME280;21367;51.930;8.112;2023-02-01T14:06:00;100801.94;;;6.31;99.66
35224;BME280;21367;51.930;8.112;2023-02-01T14:11:05;100801.94;;;6.31;99.00
35224;BME280;21367;51.930;8.112;2023-02-01T14:16:15;100793.78;;;6.37;98.10
35224;BME280;21367;51.930;8.112;2023-02-01T14:21:22;100784.00;;;6.44;97.82
35224;BME280;21367;51.930;8.112;2023-02-01T14:26:43;100770.41;;;6.59;95.66
35224;BME280;21367;51.930;8.112;2023-02-01T14:31:54;100786.13;;;6.52;97.39
35224;BME280;21367;51.930;8.112;2023-02-01T14:37:05;100790.69;;;6.28;98.36
35224;BME280;21367;51.930;8.112;2023-02-01T14:42:20;100770.06;;;6.24;97.69
35224;BME280;21367;51.930;8.112;2023-02-01T14:47:33;100836.13;;;6.33;98.99
35224;BME280;21367;51.930;8.112;2023-02-01T14:52:41;100865.97;;;6.08;99.07
35224;BME280;21367;51.930;8.112;2023-02-01T14:57:50;100845.66;;;4.78;99.77
35224;BME280;21367;51.930;8.112;2023-02-01T15:03:23;100859.06;;;4.13;100.00
35224;BME280;21367;51.930;8.112;2023-02-01T15:10:10;100860.03;;;4.27;100.00
35224;BME280;21367;51.930;8.112;2023-02-01T15:20:35;100862.56;;;4.89;100.00
35224;BME280;21367;51.930;8.112;2023-02-01T15:25:39;100868.81;;;5.32;100.00
35224;BME280;21367;51.930;8.112;2023-02-01T15:30:52;100858.25;;;5.40;100.00
35224;BME280;21367;51.930;8.112;2023-02-01T15:36:10;100871.75;;;5.39;100.00
35224;BME280;21367;51.930;8.112;2023-02-01T15:41:18;100874.50;;;5.42;100.00
35224;BME280;21367;51.930;8.112;2023-02-01T15:46:32;100899.09;;;5.28;100.00
35224;BME280;21367;51.930;8.112;2023-02-01T15:51:44;100900.50;;;5.36;100.00
35224;BME280;21367;51.930;8.112;2023-02-01T15:56:51;100895.56;;;5.26;100.00
35224;BME280;21367;51.930;8.112;2023-02-01T16:01:56;100908.72;;;5.07;100.00
35224;BME280;21367;51.930;8.112;2023-02-01T16:07:03;100923.66;;;5.14;100.00
35224;BME280;21367;51.930;8.112;2023-02-01T16:12:31;100929.69;;;5.03;100.00
35224;BME280;21367;51.930;8.112;2023-02-01T16:17:36;100921.22;;;4.91;100.00
35224;BME280;21367;51.930;8.112;2023-02-01T16:22:43;100913.41;;;5.01;100.00
35224;BME280;21367;51.930;8.112;2023-02-01T16:27:47;100931.56;;;5.05;100.00
35224;BME280;21367;51.930;8.112;2023-02-01T16:32:52;100956.25;;;5.06;100.00
35224;BME280;21367;51.930;8.112;2023-02-01T16:38:01;100949.47;;;5.07;99.27
35224;BME280;21367;51.930;8.112;2023-02-01T16:43:12;100942.06;;;5.10;94.72
35224;BME280;21367;51.930;8.112;2023-02-01T16:48:21;100963.19;;;4.96;97.11
35224;BME280;21367;51.930;8.112;2023-02-01T16:53:29;100962.38;;;5.22;98.44
35224;BME280;21367;51.930;8.112;2023-02-01T16:58:34;100963.81;;;5.05;100.00
35224;BME280;21367;51.930;8.112;2023-02-01T17:03:40;100961.75;;;5.13;100.00
35224;BME280;21367;51.930;8.112;2023-02-01T17:08:51;100972.31;;;5.30;100.00
35224;BME280;21367;51.930;8.112;2023-02-01T17:14:01;100979.81;;;5.16;100.00
35224;BME280;21367;51.930;8.112;2023-02-01T17:19:14;100973.78;;;5.27;100.00
35224;BME280;21367;51.930;8.112;2023-02-01T17:24:28;100980.50;;;5.26;100.00
35224;BME280;21367;51.930;8.112;2023-02-01T17:29:33;100995.63;;;5.23;100.00
35224;BME280;21367;51.930;8.112;2023-02-01T17:34:37;101000.09;;;5.14;100.00
35224;BME280;21367;51.930;8.112;2023-02-01T17:39:44;100995.66;;;5.12;100.00
35224;BME280;21367;51.930;8.112;2023-02-01T17:45:01;101000.78;;;5.00;100.00
35224;BME280;21367;51.930;8.112;2023-02-01T17:50:06;101010.53;;;5.05;100.00
35224;BME280;21367;51.930;8.112;2023-02-01T17:55:19;101006.81;;;5.14;100.00
35224;BME280;21367;51.930;8.112;2023-02-01T18:00:24;101004.44;;;5.03;100.00
35224;BME280;21367;51.930;8.112;2023-02-01T18:05:34;101006.19;;;5.04;100.00
35224;BME280;21367;51.930;8.112;2023-02-01T18:10:42;101001.22;;;4.69;100.00
35224;BME280;21367;51.930;8.112;2023-02-01T18:15:47;101010.34;;;4.91;100.00
35224;BME280;21367;51.930;8.112;2023-02-01T18:20:52;101001.34;;;4.59;100.00
35224;BME280;21367;51.930;8.112;2023-02-01T18:25:59;100987.72;;;4.70;100.00
35224;BME280;21367;51.930;8.112;2023-02-01T18:31:04;101008.31;;;4.61;100.00
35224;BME280;21367;51.930;8.112;2023-02-01T18:36:10;101012.63;;;4.74;100.00
35224;BME280;21367;51.930;8.112;2023-02-01T18:41:19;101009.53;;;5.03;100.00
35224;BME280;21367;51.930;8.112;2023-02-01T18:46:24;101009.34;;;4.88;100.00
35224;BME280;21367;51.930;8.112;2023-02-01T18:51:29;101017.16;;;4.67;100.00
35224;BME280;21367;51.930;8.112;2023-02-01T18:56:35;101014.19;;;4.97;100.00
35224;BME280;21367;51.930;8.112;2023-02-01T19:01:39;101014.03;;;5.07;100.00
35224;BME280;21367;51.930;8.112;2023-02-01T19:06:43;101022.94;;;5.01;100.00
35224;BME280;21367;51.930;8.112;2023-02-01T19:11:49;101028.97;;;4.90;100.00
35224;BME280;21367;51.930;8.112;2023-02-01T19:16:54;101030.56;;;5.01;100.00
35224;BME280;21367;51.930;8.112;2023-02-01T19:21:59;101028.03;;;5.01;100.00
35224;BME280;21367;51.930;8.112;2023-02-01T19:27:06;101031.34;;;5.12;100.00
35224;BME280;21367;51.930;8.112;2023-02-01T19:32:11;101042.25;;;5.22;100.00
35224;BME280;21367;51.930;8.112;2023-02-01T19:37:15;101031.00;;;5.07;100.00
35224;BME280;21367;51.930;8.112;2023-02-01T19:42:23;101040.47;;;4.96;100.00
35224;BME280;21367;51.930;8.112;2023-02-01T19:47:27;101048.41;;;5.01;100.00
35224;BME280;21367;51.930;8.112;2023-02-01T19:52:31;101043.66;;;4.94;100.00
35224;BME280;21367;51.930;8.112;2023-02-01T19:57:38;101039.69;;;4.85;99.15
35224;BME280;21367;51.930;8.112;2023-02-01T20:02:43;101048.47;;;4.77;98.69
35224;BME280;21367;51.930;8.112;2023-02-01T20:07:47;101052.53;;;4.87;98.67
35224;BME280;21367;51.930;8.112;2023-02-01T20:12:54;101047.75;;;4.92;97.99
35224;BME280;21367;51.930;8.112;2023-02-01T20:17:58;101059.16;;;4.97;97.25
35224;BME280;21367;51.930;8.112;2023-02-01T20:23:03;101070.38;;;4.87;95.32
35224;BME280;21367;51.930;8.112;2023-02-01T20:28:18;101064.25;;;4.97;96.28
35224;BME280;21367;51.930;8.112;2023-02-01T20:33:24;101067.69;;;4.97;96.22
35224;BME280;21367;51.930;8.112;2023-02-01T20:38:28;101064.38;;;4.98;97.79
35224;BME280;21367;51.930;8.112;2023-02-01T20:43:38;101078.47;;;4.70;98.72
35224;BME280;21367;51.930;8.112;2023-02-01T20:48:43;101079.69;;;4.86;100.00
35224;BME280;21367;51.930;8.112;2023-02-01T20:53:47;101075.09;;;4.94;99.60
35224;BME280;21367;51.930;8.112;2023-02-01T20:58:54;101077.22;;;4.76;100.00
35224;BME280;21367;51.930;8.112;2023-02-01T21:04:02;101077.03;;;4.61;100.00
35224;BME280;21367;51.930;8.112;2023-02-01T21:09:07;101075.59;;;4.41;100.00
35224;BME280;21367;51.930;8.112;2023-02-01T21:14:13;101081.91;;;4.47;100.00
35224;BME280;21367;51.930;8.112;2023-02-01T21:19:17;101081.25;;;4.61;100.00
35224;BME280;21367;51.930;8.112;2023-02-01T21:24:22;101083.00;;;4.38;100.00
35224;BME280;21367;51.930;8.112;2023-02-01T21:29:28;101082.25;;;4.28;100.00
35224;BME280;21367;51.930;8.112;2023-02-01T21:34:32;101089.88;;;4.39;100.00
35224;BME280;21367;51.930;8.112;2023-02-01T21:39:35;101085.44;;;4.25;100.00
35224;BME280;21367;51.930;8.112;2023-02-01T21:44:42;101092.69;;;3.97;100.00
35224;BME280;21367;51.930;8.112;2023-02-01T21:49:48;101085.72;;;3.94;100.00
35224;BME280;21367;51.930;8.112;2023-02-01T21:54:52;101095.38;;;4.10;100.00
35224;BME280;21367;51.930;8.112;2023-02-01T22:00:02;101091.19;;;4.34;100.00
35224;BME280;21367;51.930;8.112;2023-02-01T22:05:08;101095.19;;;4.31;100.00
35224;BME280;21367;51.930;8.112;2023-02-01T22:10:12;101098.97;;;4.36;100.00
35224;BME280;21367;51.930;8.112;2023-02-01T22:15:18;101121.50;;;4.31;100.00
35224;BME280;21367;51.930;8.112;2023-02-01T22:20:23;101121.63;;;4.33;100.00
35224;BME280;21367;51.930;8.112;2023-02-01T22:25:28;101134.78;;;4.51;100.00
35224;BME280;21367;51.930;8.112;2023-02-01T22:30:37;101143.53;;;4.43;100.00
35224;BME280;21367;51.930;8.112;2023-02-01T22:35:41;101148.31;;;4.61;100.00
35224;BME280;21367;51.930;8.112;2023-02-01T22:40:52;101158.47;;;4.50;100.00
35224;BME280;21367;51.930;8.112;2023-02-01T22:46:00;101152.97;;;4.67;100.00
35224;BME280;21367;51.930;8.112;2023-02-01T22:51:06;101153.44;;;4.73;100.00
35224;BME280;21367;51.930;8.112;2023-02-01T22:56:12;101158.06;;;4.79;100.00
35224;BME280;21367;51.930;8.112;2023-02-01T23:01:19;101164.16;;;4.93;100.00
35224;BME280;21367;51.930;8.112;2023-02-01T23:06:23;101177.19;;;4.97;100.00
35224;BME280;21367;51.930;8.112;2023-02-01T23:11:27;101185.19;;;4.90;100.00
35224;BME280;21367;51.930;8.112;2023-02-01T23:16:34;101188.28;;;5.09;100.00
35224;BME280;21367;51.930;8.112;2023-02-01T23:21:38;101185.50;;;5.06;100.00
35224;BME280;21367;51.930;8.112;2023-02-01T23:26:42;101184.41;;;5.15;100.00
35224;BME280;21367;51.930;8.112;2023-02-01T23:31:48;101196.91;;;5.00;100.00
35224;BME280;21367;51.930;8.112;2023-02-01T23:36:52;101196.47;;;5.05;100.00
35224;BME280;21367;51.930;8.112;2023-02-01T23:41:56;101196.81;;;4.86;100.00
35224;BME280;21367;51.930;8.112;2023-02-01T23:47:04;101195.94;;;4.86;100.00
35224;BME280;21367;51.930;8.112;2023-02-01T23:52:08;101209.19;;;4.82;100.00
35224;BME280;21367;51.930;8.112;2023-02-01T23:57:12;101211.53;;;4.79;100.00
